createdAt,value
2019-02-27T05:42:48.901Z,1.60
2019-02-27T05:45:18.128Z,2.90
2019-02-27T05:47:47.403Z,2.60
2019-02-27T05:50:16.514Z,2.30
2019-02-27T05:52:48.551Z,2.10
2019-02-27T05:55:16.545Z,1.90
2019-02-27T05:57:45.701Z,1.80
2019-02-27T06:00:17.116Z,1.80
2019-02-27T06:02:46.285Z,1.70
2019-02-27T06:05:15.435Z,1.60
2019-02-27T06:07:44.587Z,1.60
2019-02-27T06:10:17.462Z,1.60
2019-02-27T06:12:45.507Z,1.60
2019-02-27T06:15:16.268Z,1.60
2019-02-27T06:17:48.773Z,1.70
2019-02-27T06:20:16.345Z,1.60
2019-02-27T06:22:45.490Z,3.20
2019-02-27T06:25:21.587Z,3.30
2019-02-27T06:27:47.484Z,3.00
2019-02-27T06:30:18.034Z,2.80
2019-02-27T06:32:47.204Z,2.60
2019-02-27T06:35:16.779Z,2.40
2019-02-27T06:37:50.411Z,2.30
2019-02-27T06:40:18.264Z,2.30
2019-02-27T06:42:47.674Z,2.30
2019-02-27T06:45:17.101Z,2.30
2019-02-27T06:47:46.374Z,2.30
2019-02-27T06:50:16.000Z,2.30
2019-02-27T06:52:45.168Z,2.30
2019-02-27T06:55:14.918Z,2.30
2019-02-27T06:57:44.094Z,2.40
2019-02-27T07:00:16.619Z,2.50
2019-02-27T07:02:45.862Z,2.50
2019-02-27T07:05:15.760Z,2.60
2019-02-27T07:07:44.934Z,2.70
2019-02-27T07:10:19.437Z,2.80
2019-02-27T07:12:46.353Z,2.90
2019-02-27T07:15:17.561Z,3.00
2019-02-27T07:17:46.683Z,3.10
2019-02-27T07:20:17.194Z,3.20
2019-02-27T07:22:46.819Z,3.40
2019-02-27T07:25:16.744Z,3.50
2019-02-27T07:27:45.876Z,3.70
2019-02-27T07:30:16.712Z,3.80
2019-02-27T07:32:45.967Z,3.90
2019-02-27T07:35:15.280Z,4.10
2019-02-27T07:37:47.024Z,4.20
2019-02-27T07:40:15.778Z,4.60
2019-02-27T07:42:44.937Z,5.70
2019-02-27T07:45:16.284Z,6.20
2019-02-27T07:47:45.450Z,6.00
2019-02-27T07:50:15.756Z,5.90
2019-02-27T07:52:44.905Z,5.80
2019-02-27T07:55:21.915Z,5.80
2019-02-27T07:57:46.909Z,5.70
2019-02-27T08:00:17.554Z,5.70
2019-02-27T08:02:46.691Z,5.80
2019-02-27T08:05:15.834Z,5.90
2019-02-27T08:07:48.646Z,6.00
2019-02-27T08:10:18.065Z,6.10
2019-02-27T08:12:47.288Z,6.20
2019-02-27T08:15:17.459Z,6.30
2019-02-27T08:17:46.669Z,6.40
2019-02-27T08:20:20.102Z,6.60
2019-02-27T08:22:48.273Z,7.10
2019-02-27T08:25:18.485Z,7.90
2019-02-27T08:27:47.663Z,9.90
2019-02-27T08:30:18.818Z,11.60
2019-02-27T08:32:48.320Z,13.80
2019-02-27T08:35:17.482Z,15.50
2019-02-27T08:37:46.625Z,16.70
2019-02-27T08:40:16.275Z,17.30
2019-02-27T08:42:45.516Z,17.60
2019-02-27T08:45:19.816Z,18.60
2019-02-27T08:47:45.782Z,19.10
2019-02-27T08:50:17.450Z,20.20
2019-02-27T08:52:50.544Z,20.20
2019-02-27T08:55:21.175Z,19.80
2019-02-27T08:57:49.869Z,20.10
2019-02-27T09:00:23.173Z,20.30
2019-02-27T09:02:52.317Z,20.60
2019-02-27T09:05:21.887Z,20.40
2019-02-27T09:07:51.344Z,20.80
2019-02-27T09:10:23.160Z,20.70
2019-02-27T09:12:51.986Z,21.20
2019-02-27T09:15:21.339Z,21.60
2019-02-27T09:17:50.559Z,21.10
2019-02-27T09:20:20.738Z,20.80
2019-02-27T09:22:50.300Z,21.00
2019-02-27T09:25:23.630Z,20.70
2019-02-27T09:27:50.467Z,21.70
2019-02-27T09:30:19.717Z,21.20
2019-02-27T09:32:49.301Z,21.40
2019-02-27T09:35:19.045Z,21.80
2019-02-27T09:37:50.668Z,22.40
2019-02-27T09:40:20.992Z,21.70
2019-02-27T09:42:52.733Z,21.80
2019-02-27T09:45:26.335Z,22.60
2019-02-27T09:47:59.558Z,22.50
2019-02-27T09:50:38.365Z,22.60
2019-02-27T09:53:07.589Z,22.30
2019-02-27T09:55:36.837Z,23.50
2019-02-27T09:58:11.156Z,23.00
2019-02-27T10:00:46.533Z,23.10
2019-02-27T10:03:20.164Z,22.80
2019-02-27T10:05:47.803Z,23.00
2019-02-27T10:08:17.456Z,22.60
2019-02-27T10:10:46.644Z,23.10
2019-02-27T10:13:15.944Z,23.20
2019-02-27T10:15:45.151Z,23.20
2019-02-27T10:18:18.119Z,24.70
2019-02-27T10:20:45.236Z,23.40
2019-02-27T10:23:14.410Z,23.20
2019-02-27T10:25:44.208Z,22.50
2019-02-27T10:28:13.424Z,21.90
2019-02-27T10:30:42.638Z,24.20
2019-02-27T10:33:11.930Z,25.00
2019-02-27T10:35:41.716Z,24.50
2019-02-27T10:38:10.877Z,23.40
2019-02-27T10:40:40.036Z,23.30
2019-02-27T10:43:09.278Z,23.50
2019-02-27T10:45:38.422Z,22.80
2019-02-27T10:48:07.675Z,22.80
2019-02-27T10:50:36.905Z,23.60
2019-02-27T10:53:06.191Z,23.30
2019-02-27T10:55:35.440Z,23.70
2019-02-27T10:58:04.662Z,23.00
2019-02-27T11:00:33.809Z,22.80
2019-02-27T11:03:03.002Z,22.50
2019-02-27T11:05:33.613Z,22.20
2019-02-27T11:08:02.779Z,22.40
2019-02-27T11:10:32.115Z,22.70
2019-02-27T11:13:05.503Z,23.10
2019-02-27T11:15:32.443Z,22.80
2019-02-27T11:18:05.416Z,21.40
2019-02-27T11:20:32.488Z,21.80
2019-02-27T11:23:06.421Z,21.30
2019-02-27T11:25:32.840Z,22.00
2019-02-27T11:28:02.208Z,22.20
2019-02-27T11:30:36.787Z,21.60
2019-02-27T11:33:04.472Z,20.90
2019-02-27T11:35:33.599Z,19.60
2019-02-27T11:38:02.778Z,19.60
2019-02-27T11:40:32.001Z,19.70
2019-02-27T11:43:06.338Z,19.80
2019-02-27T11:45:32.696Z,20.00
2019-02-27T11:48:02.280Z,20.20
2019-02-27T11:50:31.910Z,19.90
2019-02-27T11:53:02.744Z,19.30
2019-02-27T11:55:32.190Z,19.70
2019-02-27T11:58:04.601Z,19.50
2019-02-27T12:00:32.636Z,18.90
2019-02-27T12:03:02.105Z,19.30
2019-02-27T12:05:34.297Z,19.20
2019-02-27T12:08:02.828Z,18.50
2019-02-27T12:10:32.344Z,18.30
2019-02-27T12:13:02.728Z,18.40
2019-02-27T12:15:33.042Z,18.20
2019-02-27T12:18:05.461Z,18.10
2019-02-27T12:20:36.475Z,18.30
2019-02-27T12:23:07.544Z,18.40
2019-02-27T12:25:37.824Z,18.50
2019-02-27T12:28:07.682Z,18.40
2019-02-27T12:30:38.031Z,18.20
2019-02-27T12:33:07.751Z,18.50
2019-02-27T12:35:37.121Z,18.70
2019-02-27T12:38:08.155Z,18.40
2019-02-27T12:40:39.088Z,18.40
2019-02-27T12:43:08.243Z,18.50
2019-02-27T12:45:37.500Z,18.70
2019-02-27T12:48:06.644Z,18.90
2019-02-27T12:50:35.806Z,18.90
2019-02-27T12:53:05.949Z,18.80
2019-02-27T12:55:36.243Z,18.90
2019-02-27T12:58:05.848Z,19.00
2019-02-27T13:00:35.726Z,18.60
2019-02-27T13:03:08.341Z,18.50
2019-02-27T13:05:38.966Z,18.20
2019-02-27T13:08:08.373Z,17.90
2019-02-27T13:10:48.675Z,18.20
2019-02-27T13:13:18.448Z,18.40
2019-02-27T13:15:47.602Z,18.20
2019-02-27T13:18:16.752Z,18.40
2019-02-27T13:20:46.335Z,18.40
2019-02-27T13:23:15.793Z,18.40
2019-02-27T13:25:45.086Z,18.20
2019-02-27T13:28:15.580Z,18.20
2019-02-27T13:30:45.112Z,18.20
2019-02-27T13:33:15.443Z,18.00
2019-02-27T13:35:44.838Z,17.90
2019-02-27T13:38:17.717Z,17.90
2019-02-27T13:40:45.180Z,17.90
2019-02-27T13:43:14.788Z,18.10
2019-02-27T13:45:47.311Z,18.00
2019-02-27T13:48:15.070Z,18.20
2019-02-27T13:50:44.338Z,18.00
2019-02-27T13:53:13.544Z,18.00
2019-02-27T13:55:45.304Z,17.70
2019-02-27T13:58:13.966Z,17.80
2019-02-27T14:00:43.282Z,17.90
2019-02-27T14:03:13.415Z,17.60
2019-02-27T14:05:43.328Z,17.60
2019-02-27T14:08:12.486Z,17.60
2019-02-27T14:10:41.674Z,17.50
2019-02-27T14:13:10.858Z,17.70
2019-02-27T14:15:40.299Z,17.70
2019-02-27T14:18:09.479Z,17.60
2019-02-27T14:20:38.908Z,17.30
2019-02-27T14:23:08.088Z,17.00
2019-02-27T14:25:37.339Z,17.00
2019-02-27T14:28:06.499Z,16.90
2019-02-27T14:30:38.637Z,17.10
2019-02-27T14:33:07.795Z,17.10
2019-02-27T14:35:37.218Z,17.30
2019-02-27T14:38:06.436Z,17.30
2019-02-27T14:40:40.011Z,17.10
2019-02-27T14:43:07.589Z,17.30
2019-02-27T14:45:39.504Z,17.50
2019-02-27T14:48:07.632Z,17.40
2019-02-27T14:50:36.864Z,17.40
2019-02-27T14:53:06.031Z,17.30
2019-02-27T14:55:37.233Z,17.20
2019-02-27T14:58:06.159Z,17.00
2019-02-27T15:00:39.997Z,17.00
2019-02-27T15:03:07.527Z,16.90
2019-02-27T15:05:40.149Z,16.70
2019-02-27T15:08:07.731Z,16.80
2019-02-27T15:10:40.183Z,16.90
2019-02-27T15:13:07.933Z,16.90
2019-02-27T15:15:37.130Z,16.90
2019-02-27T15:18:06.385Z,16.90
2019-02-27T15:20:39.888Z,16.90
2019-02-27T15:23:06.505Z,16.90
2019-02-27T15:25:35.677Z,16.70
2019-02-27T15:28:04.901Z,16.90
2019-02-27T15:30:34.064Z,17.00
2019-02-27T15:33:05.002Z,17.00
2019-02-27T15:35:34.180Z,17.00
2019-02-27T15:38:03.308Z,16.80
2019-02-27T15:40:32.990Z,16.90
2019-02-27T15:43:10.685Z,16.60
2019-02-27T15:45:33.063Z,16.50
2019-02-27T15:48:06.623Z,16.30
2019-02-27T15:50:33.454Z,16.10
2019-02-27T15:53:04.397Z,16.10
2019-02-27T15:55:35.226Z,16.10
2019-02-27T15:58:05.048Z,16.00
2019-02-27T16:00:34.365Z,16.00
2019-02-27T16:03:03.579Z,15.80
2019-02-27T16:05:32.797Z,15.70
2019-02-27T16:08:02.029Z,15.70
2019-02-27T16:10:31.218Z,15.60
2019-02-27T16:13:01.330Z,15.60
2019-02-27T16:15:30.896Z,15.60
2019-02-27T16:18:04.415Z,15.70
2019-02-27T16:20:31.807Z,15.70
2019-02-27T16:23:04.267Z,15.50
2019-02-27T16:25:31.900Z,15.20
2019-02-27T16:28:01.053Z,14.80
2019-02-27T16:30:32.383Z,14.60
2019-02-27T16:33:01.228Z,14.40
2019-02-27T16:35:30.788Z,14.10
2019-02-27T16:37:59.947Z,13.90
2019-02-27T16:40:30.240Z,13.80
2019-02-27T16:42:59.486Z,13.60
2019-02-27T16:45:33.866Z,13.40
2019-02-27T16:48:00.757Z,13.20
2019-02-27T16:50:30.042Z,13.10
2019-02-27T16:52:59.217Z,12.90
2019-02-27T16:55:28.405Z,12.80
2019-02-27T16:57:58.052Z,12.60
2019-02-27T17:00:28.964Z,12.40
2019-02-27T17:02:58.275Z,12.60
2019-02-27T17:05:27.653Z,12.40
2019-02-27T17:08:00.225Z,12.20
2019-02-27T17:10:30.553Z,12.00
2019-02-27T17:13:00.251Z,11.90
2019-02-27T17:15:35.960Z,11.70
2019-02-27T17:18:02.871Z,11.50
2019-02-27T17:20:33.887Z,11.60
2019-02-27T17:23:07.625Z,11.50
2019-02-27T17:25:34.070Z,11.30
2019-02-27T17:28:03.371Z,11.10
2019-02-27T17:30:36.659Z,11.00
2019-02-27T17:33:05.311Z,10.80
2019-02-27T17:35:36.443Z,10.70
2019-02-27T17:38:05.679Z,10.50
2019-02-27T17:40:37.619Z,10.30
2019-02-27T17:43:10.532Z,10.20
2019-02-27T17:45:39.684Z,10.10
2019-02-27T17:48:09.398Z,9.90
2019-02-27T17:50:39.769Z,9.80
2019-02-27T17:53:08.991Z,9.70
2019-02-27T17:55:41.504Z,9.60
2019-02-27T17:58:08.995Z,9.50
2019-02-27T18:00:40.695Z,9.40
2019-02-27T18:03:09.827Z,9.30
2019-02-27T18:05:38.972Z,9.20
2019-02-27T18:08:08.310Z,9.10
2019-02-27T18:10:40.685Z,9.00
2019-02-27T18:13:09.937Z,8.90
2019-02-27T18:15:39.097Z,8.80
2019-02-27T18:18:10.639Z,8.70
2019-02-27T18:20:39.422Z,8.80
2019-02-27T18:23:08.569Z,8.90
2019-02-27T18:25:41.162Z,8.70
2019-02-27T18:28:09.629Z,8.60
2019-02-27T18:30:38.819Z,8.50
2019-02-27T18:33:13.609Z,8.40
2019-02-27T18:35:39.611Z,8.30
2019-02-27T18:38:08.731Z,8.10
2019-02-27T18:40:37.929Z,8.00
2019-02-27T18:43:07.117Z,7.90
2019-02-27T18:45:36.493Z,7.90
2019-02-27T18:48:07.292Z,7.80
2019-02-27T18:50:36.942Z,7.80
2019-02-27T18:53:07.501Z,7.70
2019-02-27T18:55:37.097Z,7.60
2019-02-27T18:58:06.644Z,7.60
2019-02-27T19:00:36.923Z,7.50
2019-02-27T19:03:06.866Z,7.40
2019-02-27T19:05:38.171Z,7.40
2019-02-27T19:08:07.394Z,7.30
2019-02-27T19:10:41.013Z,7.20
2019-02-27T19:13:07.709Z,7.40
2019-02-27T19:15:37.393Z,7.80
2019-02-27T19:18:07.418Z,7.60
2019-02-27T19:20:37.461Z,7.50
2019-02-27T19:23:06.628Z,8.00
2019-02-27T19:25:35.965Z,8.80
2019-02-27T19:28:06.226Z,9.20
2019-02-27T19:30:35.431Z,9.50
2019-02-27T19:33:05.351Z,9.90
2019-02-27T19:35:34.619Z,10.10
2019-02-27T19:38:04.274Z,10.20
2019-02-27T19:40:33.452Z,9.90
2019-02-27T19:43:03.864Z,9.80
2019-02-27T19:45:35.890Z,9.20
2019-02-27T19:48:04.494Z,8.50
2019-02-27T19:50:33.746Z,8.00
2019-02-27T19:53:06.592Z,7.60
2019-02-27T19:55:34.163Z,7.30
2019-02-27T19:58:03.374Z,7.10
2019-02-27T20:00:34.937Z,6.90
2019-02-27T20:03:04.251Z,6.80
2019-02-27T20:05:33.963Z,6.60
2019-02-27T20:08:03.296Z,6.40
2019-02-27T20:10:33.409Z,6.30
2019-02-27T20:13:03.050Z,6.20
2019-02-27T20:15:32.721Z,6.10
2019-02-27T20:18:01.872Z,6.00
2019-02-27T20:20:31.069Z,6.00
2019-02-27T20:23:00.239Z,5.90
2019-02-27T20:25:30.058Z,5.90
2019-02-27T20:27:59.883Z,5.90
2019-02-27T20:30:29.405Z,5.80
2019-02-27T20:32:59.758Z,5.70
2019-02-27T20:35:29.484Z,5.70
2019-02-27T20:37:58.745Z,5.60
2019-02-27T20:40:33.775Z,5.50
2019-02-27T20:42:59.202Z,5.50
2019-02-27T20:45:28.659Z,5.50
2019-02-27T20:48:01.698Z,5.40
2019-02-27T20:50:34.726Z,5.40
2019-02-27T20:53:04.234Z,5.40
2019-02-27T20:55:33.650Z,5.30
2019-02-27T20:58:02.854Z,5.30
2019-02-27T21:00:35.981Z,5.30
2019-02-27T21:03:03.054Z,5.30
2019-02-27T21:05:32.877Z,5.30
2019-02-27T21:08:02.589Z,5.30
2019-02-27T21:10:32.818Z,5.20
2019-02-27T21:13:02.313Z,5.10
2019-02-27T21:15:32.392Z,5.10
2019-02-27T21:18:04.351Z,5.00
2019-02-27T21:20:33.545Z,4.90
2019-02-27T21:23:03.412Z,4.90
2019-02-27T21:25:32.730Z,4.80
2019-02-27T21:28:06.602Z,4.80
2019-02-27T21:30:34.630Z,4.80
2019-02-27T21:33:03.778Z,4.70
2019-02-27T21:35:32.951Z,4.70
2019-02-27T21:38:02.121Z,4.70
2019-02-27T21:40:33.403Z,4.80
2019-02-27T21:43:02.358Z,4.70
2019-02-27T21:45:37.114Z,4.70
2019-02-27T21:48:03.634Z,4.70
2019-02-27T21:50:32.945Z,4.60
2019-02-27T21:53:02.119Z,4.60
2019-02-27T21:55:31.396Z,4.50
2019-02-27T21:58:00.947Z,4.40
2019-02-27T22:00:30.423Z,4.40
2019-02-27T22:03:04.050Z,4.30
2019-02-27T22:05:30.456Z,4.30
2019-02-27T22:07:59.620Z,4.20
2019-02-27T22:10:28.757Z,4.20
2019-02-27T22:12:57.899Z,4.10
2019-02-27T22:15:28.542Z,4.10
2019-02-27T22:17:57.767Z,4.00
2019-02-27T22:20:27.192Z,4.00
2019-02-27T22:22:56.343Z,3.90
2019-02-27T22:25:29.874Z,3.90
2019-02-27T22:27:58.351Z,3.80
